createdAt,value
2018-06-18T00:02:15.340Z,91.75
2018-06-18T00:04:44.385Z,91.67
2018-06-18T00:07:13.408Z,92.28
2018-06-18T00:09:42.355Z,92.00
2018-06-18T00:12:11.357Z,90.97
2018-06-18T00:14:40.308Z,91.66
2018-06-18T00:17:09.301Z,90.59
2018-06-18T00:19:38.260Z,90.44
2018-06-18T00:22:11.660Z,90.53
2018-06-18T00:24:40.688Z,91.53
2018-06-18T00:27:09.729Z,91.22
2018-06-18T00:29:38.720Z,91.50
2018-06-18T00:32:08.207Z,90.67
2018-06-18T00:34:37.232Z,90.81
2018-06-18T00:37:06.570Z,90.93
2018-06-18T00:39:35.679Z,91.29
2018-06-18T00:42:04.664Z,91.59
2018-06-18T00:44:33.738Z,92.43
2018-06-18T00:47:02.676Z,91.97
2018-06-18T00:49:31.626Z,93.12
2018-06-18T00:52:00.613Z,93.87
2018-06-18T00:54:29.660Z,93.75
2018-06-18T00:56:58.716Z,93.96
2018-06-18T00:59:27.739Z,94.86
2018-06-18T01:01:56.683Z,95.76
2018-06-18T01:04:25.648Z,95.76
2018-06-18T01:06:54.697Z,96.60
2018-06-18T01:09:23.677Z,97.17
2018-06-18T01:11:52.608Z,96.47
2018-06-18T01:14:22.512Z,96.39
2018-06-18T01:16:51.537Z,97.06
2018-06-18T01:19:20.601Z,96.54
2018-06-18T01:21:49.656Z,97.54
2018-06-18T01:24:29.732Z,96.91
2018-06-18T01:26:58.750Z,97.62
2018-06-18T01:29:27.767Z,96.72
2018-06-18T01:31:56.813Z,96.41
2018-06-18T01:34:27.924Z,97.37
2018-06-18T01:36:57.001Z,97.10
2018-06-18T01:39:25.994Z,96.84
2018-06-18T01:41:54.953Z,96.84
2018-06-18T01:44:23.893Z,97.46
2018-06-18T01:46:52.842Z,97.88
2018-06-18T01:49:21.835Z,97.32
2018-06-18T01:51:50.860Z,96.86
2018-06-18T01:54:19.913Z,97.69
2018-06-18T01:56:48.972Z,97.21
2018-06-18T01:59:17.919Z,97.80
2018-06-18T02:01:46.940Z,97.82
2018-06-18T02:04:16.013Z,96.06
2018-06-18T02:06:45.029Z,95.62
2018-06-18T02:09:14.099Z,95.98
2018-06-18T02:11:43.132Z,95.99
2018-06-18T02:14:12.507Z,95.29
2018-06-18T02:16:41.517Z,95.09
2018-06-18T02:19:10.512Z,95.23
2018-06-18T02:21:39.933Z,95.22
2018-06-18T02:24:09.041Z,94.43
2018-06-18T02:26:37.984Z,94.07
2018-06-18T02:29:12.047Z,93.13
2018-06-18T02:31:46.082Z,93.84
2018-06-18T02:34:20.233Z,93.66
2018-06-18T02:36:54.192Z,93.53
2018-06-18T02:39:23.213Z,94.13
2018-06-18T02:41:52.184Z,93.56
2018-06-18T02:44:21.212Z,93.41
2018-06-18T02:46:50.301Z,93.29
2018-06-18T02:49:34.201Z,93.54
2018-06-18T02:52:03.168Z,93.34
2018-06-18T02:54:32.136Z,91.95
2018-06-18T02:57:09.869Z,91.66
2018-06-18T02:59:38.823Z,91.63
2018-06-18T03:02:07.960Z,91.19
2018-06-18T03:04:37.061Z,90.79
2018-06-18T03:07:06.118Z,92.17
2018-06-18T03:09:35.134Z,92.45
2018-06-18T03:12:04.141Z,92.45
2018-06-18T03:14:33.141Z,93.04
2018-06-18T03:17:02.134Z,91.91
2018-06-18T03:19:36.196Z,91.77
2018-06-18T03:23:09.940Z,90.45
2018-06-18T03:25:44.025Z,91.35
2018-06-18T03:28:18.056Z,90.32
2018-06-18T03:30:46.992Z,89.41
2018-06-18T03:33:15.943Z,87.94
2018-06-18T03:35:44.933Z,88.14
2018-06-18T03:38:13.900Z,87.87
2018-06-18T03:40:42.904Z,86.69
2018-06-18T03:43:11.961Z,85.90
2018-06-18T03:45:40.976Z,86.67
2018-06-18T03:48:11.912Z,85.74
2018-06-18T03:50:41.097Z,86.64
2018-06-18T03:53:10.376Z,87.20
2018-06-18T03:55:48.763Z,86.79
2018-06-18T03:58:17.761Z,86.74
2018-06-18T04:01:27.076Z,86.64
2018-06-18T04:04:35.852Z,86.33
2018-06-18T04:07:10.115Z,86.17
2018-06-18T04:09:44.188Z,83.77
2018-06-18T04:12:13.310Z,80.11
2018-06-18T04:14:42.308Z,75.89
2018-06-18T04:17:11.392Z,71.55
2018-06-18T04:19:40.424Z,67.36
2018-06-18T04:22:09.376Z,63.10
2018-06-18T04:24:38.424Z,61.79
2018-06-18T04:27:07.448Z,63.08
2018-06-18T04:29:36.440Z,63.69
2018-06-18T04:32:05.455Z,61.34
2018-06-18T04:34:38.051Z,57.82
2018-06-18T04:37:07.020Z,50.93
2018-06-18T04:39:36.012Z,50.35
2018-06-18T04:42:10.024Z,47.36
2018-06-18T04:44:44.157Z,48.76
2018-06-18T04:47:18.107Z,50.40
2018-06-18T04:49:52.096Z,49.39
2018-06-18T04:52:21.091Z,46.80
2018-06-18T04:54:50.074Z,45.23
2018-06-18T04:57:19.093Z,44.11
2018-06-18T04:59:56.895Z,44.33
2018-06-18T05:02:25.856Z,41.12
2018-06-18T05:04:55.000Z,39.14
2018-06-18T05:07:24.184Z,38.41
2018-06-18T05:10:01.631Z,36.95
2018-06-18T05:12:30.695Z,36.21
2018-06-18T05:14:59.707Z,35.98
2018-06-18T05:17:28.802Z,38.76
2018-06-18T05:19:57.832Z,40.21
2018-06-18T05:22:26.813Z,41.80
2018-06-18T05:24:55.893Z,43.04
2018-06-18T05:27:27.456Z,45.34
2018-06-18T05:29:57.760Z,46.31
2018-06-18T05:32:26.717Z,46.44
2018-06-18T05:34:55.651Z,46.84
2018-06-18T05:37:32.981Z,46.92
2018-06-18T05:40:01.985Z,45.15
2018-06-18T05:42:30.948Z,46.98
2018-06-18T05:44:59.944Z,45.56
2018-06-18T05:47:28.966Z,44.59
2018-06-18T05:49:57.899Z,46.63
2018-06-18T05:52:26.942Z,47.31
2018-06-18T05:54:56.107Z,44.71
2018-06-18T05:57:25.104Z,42.93
2018-06-18T05:59:54.120Z,43.97
2018-06-18T06:02:23.319Z,43.88
2018-06-18T06:04:52.307Z,47.85
2018-06-18T06:07:21.267Z,50.72
2018-06-18T06:09:50.320Z,53.48
2018-06-18T06:12:19.327Z,52.66
2018-06-18T06:14:48.287Z,55.06
2018-06-18T06:17:17.237Z,56.66
2018-06-18T06:19:46.264Z,57.48
2018-06-18T06:22:15.265Z,59.17
2018-06-18T06:24:44.284Z,60.21
2018-06-18T06:27:13.230Z,62.46
2018-06-18T06:29:42.220Z,63.17
2018-06-18T06:32:11.229Z,63.44
2018-06-18T06:34:41.340Z,63.79
2018-06-18T06:37:10.337Z,64.10
2018-06-18T06:39:39.337Z,64.01
2018-06-18T06:42:15.181Z,63.82
2018-06-18T06:44:44.205Z,64.66
2018-06-18T06:47:13.248Z,63.12
2018-06-18T06:49:42.268Z,60.72
2018-06-18T06:52:11.353Z,56.49
2018-06-18T06:54:40.384Z,49.72
2018-06-18T06:57:09.380Z,45.61
2018-06-18T06:59:38.529Z,43.18
2018-06-18T07:02:07.611Z,43.48
2018-06-18T07:04:36.563Z,42.18
2018-06-18T07:07:05.575Z,41.79
2018-06-18T07:09:34.584Z,43.15
2018-06-18T07:12:03.578Z,45.77
2018-06-18T07:14:32.570Z,45.08
2018-06-18T07:17:01.564Z,45.36
2018-06-18T07:19:30.632Z,43.57
2018-06-18T07:21:59.696Z,42.82
2018-06-18T07:24:28.712Z,41.78
2018-06-18T07:26:57.676Z,38.06
2018-06-18T07:29:26.701Z,37.91
2018-06-18T07:31:55.692Z,40.24
2018-06-18T07:34:24.673Z,39.18
2018-06-18T07:36:53.612Z,41.62
2018-06-18T07:39:22.592Z,41.28
2018-06-18T07:41:51.587Z,38.61
2018-06-18T07:44:20.676Z,40.21
2018-06-18T07:46:49.612Z,40.89
2018-06-18T07:49:18.583Z,40.29
2018-06-18T07:51:47.615Z,43.42
2018-06-18T07:54:16.624Z,43.95
2018-06-18T07:56:45.676Z,43.85
2018-06-18T07:59:14.619Z,45.04
2018-06-18T08:01:43.567Z,45.88
2018-06-18T08:04:12.496Z,47.43
2018-06-18T08:06:41.573Z,47.13
2018-06-18T08:09:12.782Z,47.44
2018-06-18T08:11:42.120Z,47.02
2018-06-18T08:14:11.045Z,48.55
2018-06-18T08:16:40.006Z,49.28
2018-06-18T08:19:09.032Z,50.59
2018-06-18T08:21:38.076Z,51.16
2018-06-18T08:24:07.081Z,49.33
2018-06-18T08:26:36.025Z,50.22
2018-06-18T08:29:05.000Z,51.12
2018-06-18T08:31:34.013Z,50.61
2018-06-18T08:34:03.016Z,52.48
2018-06-18T08:36:31.984Z,51.42
2018-06-18T08:39:01.039Z,53.48
2018-06-18T08:41:30.110Z,55.55
2018-06-18T08:43:59.040Z,55.18
2018-06-18T08:46:28.045Z,51.86
2018-06-18T08:49:01.921Z,52.72
2018-06-18T08:51:35.984Z,53.25
2018-06-18T08:54:10.003Z,52.52
2018-06-18T08:56:44.153Z,52.91
2018-06-18T08:59:18.187Z,53.74
2018-06-18T09:01:47.472Z,51.79
2018-06-18T09:04:18.416Z,51.25
2018-06-18T09:06:47.927Z,52.27
2018-06-18T09:09:16.912Z,52.02
2018-06-18T09:11:45.920Z,53.83
2018-06-18T09:14:14.961Z,52.55
2018-06-18T09:16:43.912Z,50.80
2018-06-18T09:19:12.871Z,52.50
2018-06-18T09:21:41.921Z,52.34
2018-06-18T09:24:11.022Z,49.21
2018-06-18T09:26:39.996Z,50.71
2018-06-18T09:29:09.030Z,51.37
2018-06-18T09:31:42.044Z,52.67
2018-06-18T09:34:11.124Z,52.92
2018-06-18T09:36:40.059Z,51.33
2018-06-18T09:39:09.116Z,52.39
2018-06-18T09:41:38.032Z,51.71
2018-06-18T09:44:06.983Z,53.41
2018-06-18T09:46:35.964Z,48.95
2018-06-18T09:50:13.773Z,50.84
2018-06-18T09:52:47.924Z,50.80
2018-06-18T09:55:21.834Z,51.13
2018-06-18T09:57:56.032Z,48.33
2018-06-18T10:00:41.160Z,45.29
2018-06-18T10:03:10.218Z,45.53
2018-06-18T10:05:39.209Z,44.65
2018-06-18T10:08:08.216Z,43.75
2018-06-18T10:10:38.065Z,43.16
2018-06-18T10:13:07.132Z,42.57
2018-06-18T10:15:36.204Z,42.91
2018-06-18T10:18:05.581Z,40.94
2018-06-18T10:20:34.601Z,39.73
2018-06-18T10:23:04.296Z,40.09
2018-06-18T10:25:33.697Z,40.58
2018-06-18T10:28:02.700Z,45.08
2018-06-18T10:30:31.804Z,43.05
2018-06-18T10:33:05.921Z,42.42
2018-06-18T10:35:40.129Z,43.55
2018-06-18T10:38:14.368Z,49.16
2018-06-18T10:40:48.376Z,53.50
2018-06-18T10:43:24.396Z,54.39
2018-06-18T10:45:53.336Z,56.16
2018-06-18T10:48:22.714Z,58.24
2018-06-18T10:50:51.723Z,61.27
2018-06-18T10:53:20.705Z,64.04
2018-06-18T10:55:49.668Z,65.87
2018-06-18T10:58:18.651Z,69.45
2018-06-18T11:00:54.365Z,72.80
2018-06-18T11:03:23.348Z,73.21
2018-06-18T11:05:57.508Z,73.07
2018-06-18T11:08:26.432Z,73.24
2018-06-18T11:10:55.390Z,73.01
2018-06-18T11:13:24.352Z,71.14
2018-06-18T11:15:53.452Z,73.23
2018-06-18T11:18:27.420Z,73.79
2018-06-18T11:21:01.412Z,69.83
2018-06-18T11:23:35.319Z,70.05
2018-06-18T11:26:09.293Z,70.81
2018-06-18T11:28:38.292Z,69.69
2018-06-18T11:31:07.226Z,69.27
2018-06-18T11:33:36.200Z,68.74
2018-06-18T11:36:05.241Z,66.14
2018-06-18T11:38:34.192Z,66.98
2018-06-18T11:41:03.139Z,66.77
2018-06-18T11:43:32.273Z,66.20
2018-06-18T11:46:01.188Z,65.63
2018-06-18T11:48:30.194Z,66.50
2018-06-18T11:50:59.150Z,64.33
2018-06-18T11:53:28.266Z,62.55
2018-06-18T11:55:57.366Z,62.13
2018-06-18T11:58:31.439Z,63.35
2018-06-18T12:01:05.528Z,62.72
2018-06-18T12:03:39.481Z,60.53
2018-06-18T12:06:13.421Z,59.61
2018-06-18T12:08:47.416Z,59.32
2018-06-18T12:11:16.573Z,58.97
2018-06-18T12:13:45.576Z,59.84
2018-06-18T12:16:14.504Z,59.07
2018-06-18T12:18:43.523Z,59.45
2018-06-18T12:21:12.471Z,58.16
2018-06-18T12:23:41.558Z,56.68
2018-06-18T12:26:10.492Z,57.19
2018-06-18T12:28:39.438Z,56.72
2018-06-18T12:31:08.560Z,57.99
2018-06-18T12:33:37.868Z,58.52
2018-06-18T12:36:07.448Z,58.11
2018-06-18T12:38:36.405Z,60.12
2018-06-18T12:41:05.364Z,59.70
2018-06-18T12:43:37.383Z,59.75
2018-06-18T12:46:11.415Z,59.77
2018-06-18T12:48:45.477Z,60.75
2018-06-18T12:51:19.516Z,61.35
2018-06-18T12:53:53.733Z,63.09
2018-06-18T12:56:27.772Z,65.01
2018-06-18T12:58:56.805Z,64.31
2018-06-18T13:01:28.177Z,63.74
2018-06-18T13:03:57.180Z,65.24
2018-06-18T13:06:26.217Z,64.77
2018-06-18T13:08:55.313Z,64.85
2018-06-18T13:11:24.260Z,65.03
2018-06-18T13:13:53.236Z,67.48
2018-06-18T13:16:22.220Z,65.44
2018-06-18T13:18:51.229Z,65.04
2018-06-18T13:21:20.170Z,66.49
2018-06-18T13:23:49.155Z,64.55
2018-06-18T13:26:18.181Z,64.49
2018-06-18T13:28:47.128Z,65.25
2018-06-18T13:31:16.193Z,66.01
2018-06-18T13:33:45.205Z,65.51
2018-06-18T13:36:15.354Z,65.92
2018-06-18T13:38:49.498Z,67.09
2018-06-18T13:41:23.588Z,65.77
2018-06-18T13:43:57.576Z,66.09
2018-06-18T13:46:31.585Z,65.64
2018-06-18T13:49:00.592Z,66.97
2018-06-18T13:51:29.555Z,65.47
2018-06-18T13:53:58.681Z,66.20
2018-06-18T13:56:27.682Z,65.62
2018-06-18T13:58:56.688Z,65.61
2018-06-18T14:01:25.701Z,65.07
2018-06-18T14:03:54.692Z,65.49
2018-06-18T14:06:23.701Z,65.58
2018-06-18T14:08:52.716Z,65.21
2018-06-18T14:11:21.788Z,66.16
2018-06-18T14:13:50.804Z,65.06
2018-06-18T14:16:19.753Z,66.89
2018-06-18T14:18:48.735Z,66.80
2018-06-18T14:21:17.685Z,66.34
2018-06-18T14:23:46.656Z,66.18
2018-06-18T14:26:15.662Z,66.34
2018-06-18T14:28:44.592Z,65.13
2018-06-18T14:31:18.625Z,65.30
2018-06-18T14:33:52.656Z,65.70
2018-06-18T14:37:29.296Z,65.52
2018-06-18T14:40:09.370Z,65.81
2018-06-18T14:42:38.397Z,65.06
2018-06-18T14:45:07.380Z,64.10
2018-06-18T14:47:36.345Z,64.63
2018-06-18T14:50:05.324Z,63.07
2018-06-18T14:52:34.583Z,62.61
2018-06-18T14:55:03.900Z,61.89
2018-06-18T14:57:33.000Z,62.24
2018-06-18T15:00:14.998Z,61.69
2018-06-18T15:02:43.993Z,62.76
2018-06-18T15:05:13.045Z,60.73
2018-06-18T15:07:42.009Z,62.09
2018-06-18T15:10:11.104Z,60.76
2018-06-18T15:12:45.761Z,61.50
2018-06-18T15:15:19.751Z,61.31
2018-06-18T15:17:48.990Z,62.89
2018-06-18T15:20:18.082Z,63.47
2018-06-18T15:22:50.904Z,63.84
2018-06-18T15:25:19.855Z,63.73
2018-06-18T15:27:49.024Z,64.39
2018-06-18T15:30:18.023Z,65.25
2018-06-18T15:32:47.035Z,65.00
2018-06-18T15:35:16.020Z,66.00
2018-06-18T15:37:44.960Z,64.75
2018-06-18T15:40:13.954Z,64.92
2018-06-18T15:42:42.968Z,64.81
2018-06-18T15:45:11.931Z,65.29
2018-06-18T15:47:40.936Z,65.74
2018-06-18T15:50:09.940Z,65.86
2018-06-18T15:52:39.184Z,65.41
2018-06-18T15:55:08.184Z,66.33
2018-06-18T15:57:37.247Z,67.45
2018-06-18T16:00:06.361Z,67.97
2018-06-18T16:02:35.454Z,68.30
2018-06-18T16:05:04.633Z,69.52
2018-06-18T16:07:33.894Z,69.18
2018-06-18T16:10:03.045Z,70.01
2018-06-18T16:12:32.121Z,71.28
2018-06-18T16:15:01.100Z,71.36
2018-06-18T16:17:30.051Z,71.58
2018-06-18T16:19:58.980Z,70.50
2018-06-18T16:22:27.944Z,70.32
2018-06-18T16:24:57.004Z,70.72
2018-06-18T16:27:26.012Z,71.09
2018-06-18T16:29:55.069Z,70.81
2018-06-18T16:32:24.018Z,66.45
2018-06-18T16:34:53.029Z,66.47
2018-06-18T16:37:22.066Z,65.95
2018-06-18T16:39:51.092Z,66.46
2018-06-18T16:42:20.149Z,67.01
2018-06-18T16:44:49.139Z,67.05
2018-06-18T16:47:18.222Z,67.79
2018-06-18T16:49:47.195Z,69.79
2018-06-18T16:52:16.212Z,79.44
2018-06-18T16:54:45.494Z,80.80
2018-06-18T16:57:14.469Z,87.49
2018-06-18T16:59:43.425Z,93.75
2018-06-18T17:02:12.436Z,95.94
2018-06-18T17:04:41.399Z,97.99
2018-06-18T17:07:10.423Z,99.70
2018-06-18T17:09:39.386Z,100.00
2018-06-18T17:12:08.443Z,100.00
2018-06-18T17:14:37.525Z,100.00
2018-06-18T17:17:06.530Z,100.00
2018-06-18T17:19:35.644Z,100.00
2018-06-18T17:22:04.654Z,100.00
2018-06-18T17:24:33.676Z,100.00
2018-06-18T17:27:02.790Z,100.00
2018-06-18T17:29:31.832Z,100.00
2018-06-18T17:32:00.909Z,100.00
2018-06-18T17:34:29.989Z,100.00
2018-06-18T17:36:59.098Z,100.00
2018-06-18T17:39:28.121Z,100.00
2018-06-18T17:41:57.133Z,100.00
2018-06-18T17:44:26.205Z,100.00
2018-06-18T17:46:55.161Z,100.00
2018-06-18T17:49:24.125Z,100.00
2018-06-18T17:51:53.309Z,100.00
2018-06-18T17:54:22.382Z,100.00
2018-06-18T17:56:51.437Z,100.00
2018-06-18T17:59:20.492Z,100.00
2018-06-18T18:01:49.585Z,100.00
2018-06-18T18:04:18.612Z,100.00
2018-06-18T18:06:47.629Z,100.00
2018-06-18T18:09:16.647Z,100.00
2018-06-18T18:11:45.733Z,100.00
2018-06-18T18:14:14.695Z,100.00
2018-06-18T18:16:43.779Z,100.00
2018-06-18T18:19:12.809Z,100.00
2018-06-18T18:21:41.824Z,100.00
2018-06-18T18:24:10.808Z,100.00
2018-06-18T18:26:39.841Z,100.00
2018-06-18T18:29:08.828Z,100.00
2018-06-18T18:31:37.857Z,100.00
2018-06-18T18:34:06.878Z,100.00
2018-06-18T18:36:36.045Z,100.00
2018-06-18T18:39:06.924Z,100.00
2018-06-18T18:41:36.019Z,100.00
2018-06-18T18:44:05.057Z,100.00
2018-06-18T18:46:34.091Z,100.00
2018-06-18T18:49:03.108Z,100.00
2018-06-18T18:51:32.084Z,100.00
2018-06-18T18:54:01.187Z,100.00
2018-06-18T18:58:43.245Z,100.00
2018-06-18T19:01:12.218Z,100.00
2018-06-18T19:03:41.281Z,100.00
2018-06-18T19:06:10.293Z,100.00
2018-06-18T19:08:39.341Z,100.00
2018-06-18T19:11:08.379Z,100.00
2018-06-18T19:13:38.180Z,100.00
2018-06-18T19:16:07.741Z,100.00
2018-06-18T19:18:37.565Z,100.00
2018-06-18T19:21:10.697Z,100.00
2018-06-18T19:23:39.993Z,100.00
2018-06-18T19:26:09.070Z,100.00
2018-06-18T19:28:38.493Z,100.00
2018-06-18T19:31:13.730Z,100.00
2018-06-18T19:33:56.265Z,100.00
2018-06-18T19:36:25.321Z,100.00
2018-06-18T19:38:54.473Z,100.00
2018-06-18T19:41:23.766Z,100.00
2018-06-18T19:43:52.924Z,100.00
2018-06-18T19:46:26.220Z,100.00
2018-06-18T19:49:00.834Z,100.00
2018-06-18T19:51:29.804Z,100.00
2018-06-18T19:53:58.788Z,100.00
2018-06-18T19:56:27.857Z,100.00
2018-06-18T19:58:56.885Z,100.00
2018-06-18T20:01:25.937Z,100.00
2018-06-18T20:03:54.949Z,100.00
2018-06-18T20:06:23.983Z,100.00
2018-06-18T20:08:52.968Z,100.00
2018-06-18T20:11:21.942Z,100.00
2018-06-18T20:13:50.892Z,100.00
2018-06-18T20:16:19.843Z,100.00
2018-06-18T20:18:48.822Z,100.00
2018-06-18T20:21:17.844Z,100.00
2018-06-18T20:23:46.905Z,100.00
2018-06-18T20:26:17.441Z,100.00
2018-06-18T20:28:46.476Z,100.00
2018-06-18T20:31:15.568Z,100.00
2018-06-18T20:33:47.989Z,100.00
2018-06-18T20:36:18.425Z,100.00
2018-06-18T20:38:47.396Z,100.00
2018-06-18T20:41:16.395Z,100.00
2018-06-18T20:43:58.334Z,100.00
2018-06-18T20:46:27.402Z,100.00
2018-06-18T20:48:56.379Z,100.00
2018-06-18T20:51:25.395Z,100.00
2018-06-18T20:53:54.437Z,100.00
2018-06-18T20:56:23.518Z,100.00
2018-06-18T20:58:52.581Z,100.00
2018-06-18T21:01:21.621Z,100.00
2018-06-18T21:03:50.600Z,100.00
2018-06-18T21:06:19.581Z,100.00
2018-06-18T21:08:48.556Z,100.00
2018-06-18T21:11:17.508Z,100.00
2018-06-18T21:13:46.497Z,100.00
2018-06-18T21:16:15.452Z,100.00
2018-06-18T21:18:44.428Z,100.00
2018-06-18T21:21:13.487Z,100.00
2018-06-18T21:23:42.480Z,100.00
2018-06-18T21:26:11.532Z,100.00
2018-06-18T21:28:40.535Z,100.00
2018-06-18T21:31:09.486Z,100.00
2018-06-18T21:33:38.501Z,100.00
2018-06-18T21:36:07.464Z,100.00
2018-06-18T21:38:36.454Z,100.00
2018-06-18T21:41:05.431Z,100.00
2018-06-18T21:43:34.394Z,100.00
2018-06-18T21:46:03.436Z,100.00
2018-06-18T21:48:32.402Z,100.00
2018-06-18T21:51:01.372Z,100.00
2018-06-18T21:53:30.321Z,100.00
2018-06-18T21:55:59.341Z,100.00
2018-06-18T21:58:28.413Z,100.00
2018-06-18T22:00:57.406Z,100.00
2018-06-18T22:03:26.477Z,100.00
2018-06-18T22:05:55.575Z,100.00
2018-06-18T22:08:26.006Z,100.00
2018-06-18T22:10:55.018Z,100.00
2018-06-18T22:13:24.051Z,100.00
2018-06-18T22:15:53.063Z,100.00
2018-06-18T22:18:22.081Z,100.00
2018-06-18T22:20:51.126Z,100.00
2018-06-18T22:23:20.164Z,100.00
2018-06-18T22:25:49.124Z,100.00
2018-06-18T22:28:34.951Z,100.00
2018-06-18T22:31:04.634Z,100.00
2018-06-18T22:33:33.679Z,100.00
2018-06-18T22:36:02.777Z,100.00
2018-06-18T22:38:31.809Z,100.00
2018-06-18T22:41:00.861Z,100.00
2018-06-18T22:43:29.893Z,100.00
2018-06-18T22:45:58.891Z,100.00
2018-06-18T22:48:27.921Z,100.00
2018-06-18T22:50:56.952Z,100.00
2018-06-18T22:53:25.962Z,100.00
2018-06-18T22:55:55.002Z,100.00
2018-06-18T22:58:24.030Z,100.00
2018-06-18T23:00:55.093Z,100.00
2018-06-18T23:03:24.109Z,100.00
2018-06-18T23:05:53.207Z,100.00
2018-06-18T23:08:22.229Z,100.00
2018-06-18T23:10:51.660Z,100.00
2018-06-18T23:13:24.933Z,100.00
2018-06-18T23:15:53.988Z,100.00
2018-06-18T23:18:22.946Z,100.00
2018-06-18T23:20:51.948Z,100.00
2018-06-18T23:23:20.932Z,100.00
2018-06-18T23:25:49.893Z,100.00
2018-06-18T23:28:19.280Z,100.00
2018-06-18T23:30:48.309Z,100.00
2018-06-18T23:33:17.264Z,100.00
2018-06-18T23:35:46.237Z,100.00
2018-06-18T23:38:15.257Z,100.00
2018-06-18T23:40:44.303Z,100.00
2018-06-18T23:43:13.312Z,100.00
2018-06-18T23:45:42.305Z,100.00
2018-06-18T23:48:11.273Z,100.00
2018-06-18T23:50:40.244Z,100.00
2018-06-18T23:53:09.217Z,100.00
2018-06-18T23:55:38.305Z,100.00
2018-06-18T23:58:07.336Z,100.00
